首页
METAR-TAF:

METAR-TAF

机场 :

城南, 大韩民国

纬度: 37-26N, 经度: 127-07E, 海拔: 20米

当前天气观测

该预报发布于3小时和51分钟前的00:18 UTC
风速12节,风向东北
温度 21°C
湿度 49%
气压 1007 hPa
能见度10公里或以上
少量云层高于20000英尺

METAR: RKSM 280018Z 05012KT 9999 FEW200 21/10 A2973

时间: 13:09 (04:09 UTC)

预报

该预报发布于5小时和9分钟前的23:00 UTC
预报有效从28日的 00点(UTC)到 29日的 06点(UTC)
风速6节,风向东转东北
能见度10公里或以上
散云层高于4000英尺

TAF: RKSM 272300Z 2800/2906 06006KT 9999 SCT040 TX26/2806Z TN14/2822Z

超过4000个机场的气象观测和天气预报(METAR&TAF报告)。

可查询的气象台以黄色和红色小点在地图上表示。

将鼠标移到小点上方,可查看气象台名称。

然后点击查看天气观测和预报。

如需切换地图:点击带黑十字的绿色按钮放大地图;点击带横线的绿色按钮缩小地图;或者点击绿色箭头查看邻近地区的地图。


METAR-TAF: